createdAt,value
2023-03-23T00:00:24.000Z,98.7
2023-03-23T00:01:40.000Z,98.7
2023-03-23T00:02:55.000Z,98.7
2023-03-23T00:04:11.000Z,98.6
2023-03-23T00:05:27.000Z,98.5
2023-03-23T00:06:42.000Z,98.6
2023-03-23T00:07:58.000Z,98.5
2023-03-23T00:09:14.000Z,98.4
2023-03-23T00:10:30.000Z,98.5
2023-03-23T00:11:47.000Z,98.5
2023-03-23T00:13:03.000Z,98.5
2023-03-23T00:14:19.000Z,98.5
2023-03-23T00:15:35.000Z,98.4
2023-03-23T00:16:52.000Z,98.4
2023-03-23T00:18:08.000Z,98.4
2023-03-23T00:19:24.000Z,98.4
2023-03-23T00:20:41.000Z,98.4
2023-03-23T00:21:57.000Z,98.4
2023-03-23T00:23:13.837Z,98.3
2023-03-23T00:24:28.000Z,98.3
2023-03-23T00:25:45.000Z,98.1
2023-03-23T00:27:01.000Z,98
2023-03-23T00:28:17.000Z,98
2023-03-23T00:29:34.290Z,98
2023-03-23T00:30:50.583Z,97.8
2023-03-23T00:32:06.000Z,97.9
2023-03-23T00:33:23.151Z,97.9
2023-03-23T00:34:39.000Z,97.8
2023-03-23T00:35:55.728Z,97.7
2023-03-23T00:37:11.000Z,97.6
2023-03-23T00:38:28.000Z,97.6
2023-03-23T00:39:44.000Z,97.4
2023-03-23T00:40:59.000Z,97.3
2023-03-23T00:42:15.000Z,97.4
2023-03-23T00:43:32.000Z,97.3
2023-03-23T00:44:48.000Z,97.2
2023-03-23T00:46:04.000Z,97.2
2023-03-23T00:47:21.000Z,97.2
2023-03-23T00:48:37.000Z,97.1
2023-03-23T00:49:53.000Z,97.2
2023-03-23T00:51:09.000Z,97.2
2023-03-23T00:52:26.000Z,97.1
2023-03-23T00:53:42.000Z,97
2023-03-23T00:54:58.000Z,96.9
2023-03-23T00:56:15.000Z,96.9
2023-03-23T00:57:30.000Z,96.9
2023-03-23T00:58:46.000Z,96.8
2023-03-23T01:00:02.000Z,96.9
2023-03-23T01:01:19.000Z,96.9
2023-03-23T01:02:35.000Z,96.9
2023-03-23T01:03:51.000Z,96.7
2023-03-23T01:05:08.000Z,96.6
2023-03-23T01:06:24.000Z,96.5
2023-03-23T01:07:40.950Z,96.5
2023-03-23T01:08:56.000Z,96.5
2023-03-23T01:10:13.000Z,96.5
2023-03-23T01:11:29.000Z,96.4
2023-03-23T01:12:46.091Z,96.4
2023-03-23T01:14:01.000Z,96.4
2023-03-23T01:15:17.000Z,96.3
2023-03-23T01:16:33.000Z,96.2
2023-03-23T01:17:50.000Z,96.2
2023-03-23T01:19:06.000Z,96.1
2023-03-23T01:20:22.819Z,96
2023-03-23T01:21:38.000Z,96
2023-03-23T01:22:55.000Z,96
2023-03-23T01:24:11.000Z,95.8
2023-03-23T01:25:27.000Z,95.7
2023-03-23T01:26:44.000Z,95.4
2023-03-23T01:28:00.000Z,95.4
2023-03-23T01:29:16.000Z,95.3
2023-03-23T01:30:31.000Z,95.2
2023-03-23T01:31:48.000Z,95.1
2023-03-23T01:33:04.714Z,95.1
2023-03-23T01:34:20.000Z,95.1
2023-03-23T01:35:37.000Z,95
2023-03-23T01:36:53.571Z,95
2023-03-23T01:38:09.000Z,94.9
2023-03-23T01:39:25.000Z,94.8
2023-03-23T01:40:42.000Z,94.6
2023-03-23T01:41:58.000Z,94.6
2023-03-23T01:43:14.000Z,94.6
2023-03-23T01:44:31.000Z,94.6
2023-03-23T01:45:47.610Z,94.6
2023-03-23T01:47:02.000Z,94.6
2023-03-23T01:48:18.000Z,94.5
2023-03-23T01:49:35.466Z,94.5
2023-03-23T01:50:51.000Z,94.4
2023-03-23T01:52:07.000Z,94.3
2023-03-23T01:53:24.000Z,94.3
2023-03-23T01:54:40.000Z,94.3
2023-03-23T01:55:56.000Z,94.2
2023-03-23T01:57:12.000Z,94
2023-03-23T01:58:29.000Z,93.8
2023-03-23T01:59:45.000Z,93.8
2023-03-23T02:01:01.000Z,93.8
2023-03-23T02:02:18.342Z,93.8
2023-03-23T02:03:33.000Z,93.8
2023-03-23T02:04:49.000Z,93.7
2023-03-23T02:06:05.000Z,93.7
2023-03-23T02:07:22.000Z,93.7
2023-03-23T02:08:38.000Z,93.6
2023-03-23T02:09:54.000Z,93.4
2023-03-23T02:11:11.361Z,93.4
2023-03-23T02:12:27.000Z,93.3
2023-03-23T02:13:42.963Z,93.3
2023-03-23T02:14:58.277Z,93.2
2023-03-23T02:16:13.563Z,93.2
2023-03-23T02:17:28.000Z,93.1
2023-03-23T02:18:44.000Z,93.1
2023-03-23T02:20:01.000Z,92.9
2023-03-23T02:21:17.000Z,92.9
2023-03-23T02:22:33.000Z,92.9
2023-03-23T02:23:50.000Z,92.8
2023-03-23T02:25:06.000Z,92.8
2023-03-23T02:26:22.000Z,92.8
2023-03-23T02:27:38.000Z,92.8
2023-03-23T02:28:55.000Z,92.6
2023-03-23T02:30:11.000Z,92.5
2023-03-23T02:31:27.000Z,92.5
2023-03-23T02:32:44.000Z,92.3
2023-03-23T02:33:59.000Z,92.4
2023-03-23T02:35:15.000Z,92.3
2023-03-23T02:36:32.220Z,92.3
2023-03-23T02:37:48.000Z,92.3
2023-03-23T02:39:04.000Z,92.1
2023-03-23T02:40:20.000Z,92
2023-03-23T02:41:37.000Z,92
2023-03-23T02:42:53.000Z,91.9
2023-03-23T02:44:09.000Z,91.8
2023-03-23T02:45:26.212Z,91.8
2023-03-23T02:46:42.000Z,91.8
2023-03-23T02:47:58.792Z,91.8
2023-03-23T02:49:15.079Z,91.8
2023-03-23T02:50:30.000Z,91.7
2023-03-23T02:51:46.000Z,91.6
2023-03-23T02:53:02.959Z,91.4
2023-03-23T02:54:19.000Z,91.2
2023-03-23T02:55:35.000Z,91.2
2023-03-23T02:56:51.000Z,91.1
2023-03-23T02:58:07.000Z,91
2023-03-23T02:59:23.000Z,90.8
2023-03-23T03:00:38.729Z,90.7
2023-03-23T03:01:53.000Z,90.4
2023-03-23T03:03:09.000Z,90.2
2023-03-23T03:04:25.000Z,90
2023-03-23T03:05:41.000Z,89.7
2023-03-23T03:06:57.000Z,89.6
2023-03-23T03:08:14.000Z,89.5
2023-03-23T03:09:30.000Z,88.8
2023-03-23T03:10:47.081Z,88.6
2023-03-23T03:12:03.000Z,88.5
2023-03-23T03:13:19.637Z,88.5
2023-03-23T03:14:35.000Z,88.4
2023-03-23T03:15:51.000Z,88.4
2023-03-23T03:17:08.555Z,88.2
2023-03-23T03:18:24.000Z,87.9
2023-03-23T03:19:39.000Z,87.8
2023-03-23T03:20:56.422Z,87.6
2023-03-23T03:22:12.000Z,87.5
2023-03-23T03:23:28.000Z,87.3
2023-03-23T03:24:45.000Z,87.2
2023-03-23T03:26:01.000Z,87.2
2023-03-23T03:27:17.833Z,87.4
2023-03-23T03:28:33.000Z,87.3
2023-03-23T03:29:50.000Z,87.5
2023-03-23T03:31:06.688Z,87.5
2023-03-23T03:32:22.000Z,87.5
2023-03-23T03:33:39.000Z,87.6
2023-03-23T03:34:55.000Z,87.6
2023-03-23T03:36:10.000Z,87.6
2023-03-23T03:37:25.000Z,87.7
2023-03-23T03:38:41.000Z,87.7
2023-03-23T03:39:56.000Z,87.8
2023-03-23T03:41:11.000Z,87.8
2023-03-23T03:42:28.000Z,87.8
2023-03-23T03:43:44.000Z,87.7
2023-03-23T03:45:00.000Z,87.7
2023-03-23T03:46:16.000Z,87.8
2023-03-23T03:47:33.000Z,88
2023-03-23T03:48:49.000Z,88.2
2023-03-23T03:50:05.000Z,88.4
2023-03-23T03:51:22.000Z,88.4
2023-03-23T03:52:38.000Z,88.5
2023-03-23T03:53:54.000Z,88.7
2023-03-23T03:55:11.000Z,88.7
2023-03-23T03:56:27.000Z,88.7
2023-03-23T03:57:42.842Z,88.8
2023-03-23T03:58:58.000Z,88.9
2023-03-23T04:00:15.000Z,89.1
2023-03-23T04:01:31.712Z,89.2
2023-03-23T04:02:47.000Z,89.3
2023-03-23T04:04:04.000Z,89.3
2023-03-23T04:05:20.563Z,89.4
2023-03-23T04:06:35.000Z,89.3
2023-03-23T04:07:50.000Z,89.3
2023-03-23T04:09:06.000Z,89.3
2023-03-23T04:10:21.000Z,89.3
2023-03-23T04:11:36.000Z,89.3
2023-03-23T04:12:53.000Z,89.2
2023-03-23T04:14:09.000Z,89.2
2023-03-23T04:15:25.000Z,89.1
2023-03-23T04:16:42.000Z,89.1
2023-03-23T04:17:58.000Z,89
2023-03-23T04:19:14.000Z,88.9
2023-03-23T04:20:30.000Z,88.9
2023-03-23T04:21:47.000Z,88.7
2023-03-23T04:23:03.000Z,88.7
2023-03-23T04:24:19.000Z,88.6
2023-03-23T04:25:36.000Z,88.5
2023-03-23T04:26:52.000Z,88.4
2023-03-23T04:28:07.870Z,88.3
2023-03-23T04:29:24.147Z,88.3
2023-03-23T04:30:40.000Z,88.3
2023-03-23T04:31:56.000Z,88.3
2023-03-23T04:33:12.000Z,88.3
2023-03-23T04:34:29.000Z,88.2
2023-03-23T04:35:44.000Z,88
2023-03-23T04:36:59.000Z,88
2023-03-23T04:38:14.000Z,87.9
2023-03-23T04:39:30.000Z,87.9
2023-03-23T04:40:46.000Z,87.6
2023-03-23T04:42:02.000Z,87.6
2023-03-23T04:43:19.390Z,87.5
2023-03-23T04:44:35.000Z,87.5
2023-03-23T04:45:51.000Z,87.5
2023-03-23T04:47:08.000Z,87.5
2023-03-23T04:48:24.000Z,87.4
2023-03-23T04:49:40.000Z,87.3
2023-03-23T04:50:56.000Z,87.2
2023-03-23T04:52:13.000Z,87.1
2023-03-23T04:53:29.000Z,87
2023-03-23T04:54:45.967Z,87
2023-03-23T04:56:01.000Z,87
2023-03-23T04:57:17.000Z,87.1
2023-03-23T04:58:33.000Z,87
2023-03-23T04:59:50.148Z,87.1
2023-03-23T05:01:06.000Z,87
2023-03-23T05:02:22.000Z,87.1
2023-03-23T05:03:38.000Z,87.1
2023-03-23T05:04:54.000Z,87.2
2023-03-23T05:06:11.000Z,87.3
2023-03-23T05:07:27.000Z,87.3
2023-03-23T05:08:43.000Z,87.3
2023-03-23T05:09:59.000Z,87.4
2023-03-23T05:11:16.000Z,87.2
2023-03-23T05:12:31.000Z,87.1
2023-03-23T05:13:47.000Z,87.1
2023-03-23T05:15:03.000Z,87.1
2023-03-23T05:16:20.000Z,87.2
2023-03-23T05:17:35.000Z,87.3
2023-03-23T05:18:50.000Z,87.4
2023-03-23T05:20:05.000Z,87.4
2023-03-23T05:21:21.290Z,87.6
2023-03-23T05:22:37.000Z,87.6
2023-03-23T05:23:53.000Z,87.6
2023-03-23T05:25:09.000Z,87.6
2023-03-23T05:26:25.000Z,87.6
2023-03-23T05:27:42.000Z,87.5
2023-03-23T05:28:58.000Z,87.4
2023-03-23T05:30:14.000Z,87.4
2023-03-23T05:31:30.000Z,87.4
2023-03-23T05:32:47.000Z,87.4
2023-03-23T05:34:03.595Z,87.4
2023-03-23T05:35:19.000Z,87.3
2023-03-23T05:36:35.000Z,87.2
2023-03-23T05:37:51.000Z,87.2
2023-03-23T05:39:07.000Z,87.2
2023-03-23T05:40:23.788Z,87.3
2023-03-23T05:41:39.000Z,87.1
2023-03-23T05:42:56.000Z,87.1
2023-03-23T05:44:12.000Z,86.9
2023-03-23T05:45:28.000Z,86.7
2023-03-23T05:46:44.000Z,86.7
2023-03-23T05:48:00.000Z,86.6
2023-03-23T05:49:17.000Z,86.5
2023-03-23T05:50:33.000Z,86.3
2023-03-23T05:51:49.000Z,86.1
2023-03-23T05:53:05.000Z,86
2023-03-23T05:54:21.000Z,85.9
2023-03-23T05:55:37.000Z,85.8
2023-03-23T05:56:53.000Z,85.8
2023-03-23T05:58:09.000Z,85.9
2023-03-23T06:00:42.000Z,85.7
2023-03-23T06:01:58.000Z,85.6
2023-03-23T06:03:14.000Z,85.4
2023-03-23T06:04:30.000Z,85.4
2023-03-23T06:05:47.000Z,85.4
2023-03-23T06:07:03.000Z,85.2
2023-03-23T06:08:19.000Z,85.1
2023-03-23T06:09:35.000Z,85.1
2023-03-23T06:10:51.169Z,85
2023-03-23T06:12:07.648Z,85.1
2023-03-23T06:13:23.000Z,85
2023-03-23T06:14:40.120Z,84.8
2023-03-23T06:15:56.358Z,84.8
2023-03-23T06:17:12.000Z,84.9
2023-03-23T06:18:28.000Z,84.8
2023-03-23T06:19:44.000Z,84.8
2023-03-23T06:21:01.000Z,84.7
2023-03-23T06:22:17.000Z,84.8
2023-03-23T06:23:33.000Z,84.7
2023-03-23T06:24:49.000Z,84.4
2023-03-23T06:26:05.000Z,84.3
2023-03-23T06:27:21.000Z,84.4
2023-03-23T06:28:37.000Z,84.4
2023-03-23T06:29:53.000Z,84.2
2023-03-23T06:31:09.000Z,84.1
2023-03-23T06:32:26.000Z,84.1
2023-03-23T06:33:42.000Z,84.1
2023-03-23T06:34:58.875Z,84.2
2023-03-23T06:36:14.000Z,84.2
2023-03-23T06:38:47.000Z,84
2023-03-23T06:40:03.000Z,84.2
2023-03-23T06:41:19.000Z,84.2
2023-03-23T06:42:36.000Z,84.1
2023-03-23T06:43:51.000Z,84.1
2023-03-23T06:45:07.000Z,83.9
2023-03-23T06:46:23.000Z,84
2023-03-23T06:47:40.224Z,83.9
2023-03-23T06:48:56.000Z,83.9
2023-03-23T06:50:12.000Z,83.8
2023-03-23T06:51:28.000Z,83.9
2023-03-23T06:52:44.000Z,83.6
2023-03-23T06:54:01.420Z,83.5
2023-03-23T06:55:17.602Z,83.5
2023-03-23T06:56:33.000Z,83.4
2023-03-23T06:57:49.000Z,82.9
2023-03-23T06:59:06.000Z,82.6
2023-03-23T07:00:21.000Z,82.8
2023-03-23T07:01:37.000Z,82.4
2023-03-23T07:02:53.000Z,82.3
2023-03-23T07:04:10.000Z,82.1
2023-03-23T07:05:26.000Z,82.1
2023-03-23T07:06:42.727Z,82.1
2023-03-23T07:07:58.000Z,81.9
2023-03-23T07:09:14.000Z,81.9
2023-03-23T07:10:31.000Z,82.1
2023-03-23T07:11:47.000Z,82.1
2023-03-23T07:13:03.000Z,82
2023-03-23T07:14:19.000Z,81.8
2023-03-23T07:15:36.000Z,82
2023-03-23T07:16:51.000Z,82.1
2023-03-23T07:18:07.000Z,82
2023-03-23T07:19:23.000Z,82
2023-03-23T07:20:40.000Z,82.3
2023-03-23T07:21:56.000Z,82.3
2023-03-23T07:23:12.000Z,82.5
2023-03-23T07:24:28.000Z,82.4
2023-03-23T07:25:44.000Z,82.4
2023-03-23T07:27:01.482Z,82.8
2023-03-23T07:28:17.693Z,82.8
2023-03-23T07:29:33.000Z,82.8
2023-03-23T07:30:49.000Z,83
2023-03-23T07:32:06.000Z,82.9
2023-03-23T07:33:21.000Z,83.2
2023-03-23T07:34:37.000Z,83.1
2023-03-23T07:35:53.000Z,83
2023-03-23T07:37:10.000Z,83.1
2023-03-23T07:38:26.000Z,83
2023-03-23T07:39:42.000Z,82.9
2023-03-23T07:40:58.000Z,82.8
2023-03-23T07:42:15.000Z,82.7
2023-03-23T07:43:31.000Z,82.7
2023-03-23T07:44:47.000Z,82.4
2023-03-23T07:46:03.000Z,82.4
2023-03-23T07:47:19.000Z,82.7
2023-03-23T07:48:36.000Z,82.8
2023-03-23T07:49:51.681Z,83
2023-03-23T07:51:07.000Z,83.2
2023-03-23T07:52:23.000Z,83.7
2023-03-23T07:53:40.000Z,84.2
2023-03-23T07:54:56.000Z,84.4
2023-03-23T07:56:12.000Z,84.5
2023-03-23T07:57:28.000Z,84.8
2023-03-23T07:58:45.000Z,84.5
2023-03-23T08:00:01.000Z,84.7
2023-03-23T08:01:17.000Z,84.5
2023-03-23T08:02:33.000Z,84.5
2023-03-23T08:03:50.000Z,84
2023-03-23T08:05:06.000Z,83.9
2023-03-23T08:06:21.742Z,83.6
2023-03-23T08:07:37.000Z,83.3
2023-03-23T08:08:53.000Z,83
2023-03-23T08:10:10.000Z,82.7
2023-03-23T08:11:26.000Z,82.4
2023-03-23T08:12:42.000Z,82.3
2023-03-23T08:13:58.000Z,81.7
2023-03-23T08:15:15.000Z,81.5
2023-03-23T08:16:31.000Z,81.1
2023-03-23T08:17:47.831Z,80.9
2023-03-23T08:19:04.096Z,80.5
2023-03-23T08:20:20.000Z,80.2
2023-03-23T08:21:36.000Z,79.5
2023-03-23T08:22:51.000Z,78.7
2023-03-23T08:24:07.000Z,78.4
2023-03-23T08:25:24.000Z,78.2
2023-03-23T08:26:39.000Z,78.6
2023-03-23T08:27:55.000Z,78.1
2023-03-23T08:29:12.116Z,78.1
2023-03-23T08:30:27.000Z,77.9
2023-03-23T08:31:44.000Z,78.3
2023-03-23T08:33:00.000Z,78.1
2023-03-23T08:34:16.925Z,78.2
2023-03-23T08:35:32.000Z,78
2023-03-23T08:36:49.000Z,78.2
2023-03-23T08:38:05.000Z,78
2023-03-23T08:39:21.000Z,78
2023-03-23T08:40:37.000Z,78.2
2023-03-23T08:41:54.000Z,77.9
2023-03-23T08:43:09.000Z,77.6
2023-03-23T08:45:41.000Z,77.8
2023-03-23T08:46:58.000Z,78.1
2023-03-23T08:48:14.000Z,78.3
2023-03-23T08:49:30.714Z,78.4
2023-03-23T08:50:46.000Z,78.6
2023-03-23T08:52:02.000Z,78.9
2023-03-23T08:53:19.000Z,79.5
2023-03-23T08:54:35.675Z,79.5
2023-03-23T08:55:51.000Z,79.7
2023-03-23T08:58:24.000Z,80.1
2023-03-23T08:59:39.000Z,79.9
2023-03-23T09:00:55.000Z,79.5
2023-03-23T09:02:11.000Z,80.1
2023-03-23T09:03:28.000Z,80.1
2023-03-23T09:04:44.000Z,79.5
2023-03-23T09:06:00.000Z,79.5
2023-03-23T09:07:15.000Z,79.3
2023-03-23T09:08:31.282Z,79.5
2023-03-23T09:09:47.000Z,79.7
2023-03-23T09:11:03.000Z,80.1
2023-03-23T09:12:18.000Z,80.9
2023-03-23T09:13:34.000Z,81.5
2023-03-23T09:14:50.000Z,82.4
2023-03-23T09:16:06.758Z,83
2023-03-23T09:17:22.000Z,84
2023-03-23T09:18:38.000Z,84.8
2023-03-23T09:19:55.000Z,85.3
2023-03-23T09:21:11.000Z,85.7
2023-03-23T09:23:43.000Z,86
2023-03-23T09:25:00.000Z,85.9
2023-03-23T09:26:16.000Z,85.8
2023-03-23T09:27:32.000Z,86.2
2023-03-23T09:28:48.000Z,86
2023-03-23T09:30:04.000Z,86.3
2023-03-23T09:31:20.000Z,86.9
2023-03-23T09:32:36.000Z,87.7
2023-03-23T09:33:52.000Z,86.7
2023-03-23T09:35:08.000Z,87.1
2023-03-23T09:36:25.000Z,86.8
2023-03-23T09:37:41.000Z,86.7
2023-03-23T09:38:57.000Z,87
2023-03-23T09:40:13.000Z,87.2
2023-03-23T09:41:30.000Z,87.3
2023-03-23T09:42:46.000Z,87.4
2023-03-23T09:44:02.000Z,87.4
2023-03-23T09:45:19.097Z,88.3
2023-03-23T09:46:34.000Z,90.5
2023-03-23T09:47:50.582Z,89.5
2023-03-23T09:49:06.000Z,90.5
2023-03-23T09:50:22.000Z,90.4
2023-03-23T09:51:39.000Z,90.9
2023-03-23T09:52:55.517Z,91.6
2023-03-23T09:54:11.000Z,90.7
2023-03-23T09:55:27.000Z,90.8
2023-03-23T09:56:43.000Z,92.2
2023-03-23T09:58:00.000Z,92.3
2023-03-23T09:59:16.000Z,92.2
2023-03-23T10:01:49.143Z,91.6
2023-03-23T10:03:04.000Z,92.4
2023-03-23T10:04:20.000Z,93
2023-03-23T10:05:36.000Z,93.6
2023-03-23T10:06:52.000Z,94
2023-03-23T10:08:09.000Z,94.2
2023-03-23T10:09:25.000Z,93.7
2023-03-23T10:10:41.000Z,94
2023-03-23T10:11:57.000Z,94
2023-03-23T10:14:30.000Z,94.4
2023-03-23T10:15:46.000Z,94.7
2023-03-23T10:17:02.000Z,94
2023-03-23T10:18:18.000Z,93.2
2023-03-23T10:19:34.000Z,93.7
2023-03-23T10:20:50.000Z,93.8
2023-03-23T10:22:06.000Z,93.7
2023-03-23T10:23:22.000Z,93.7
2023-03-23T10:24:39.000Z,93.8
2023-03-23T10:27:11.000Z,92.8
2023-03-23T10:28:26.000Z,92.7
2023-03-23T10:29:42.000Z,93
2023-03-23T10:30:58.000Z,92.3
2023-03-23T10:32:14.835Z,92.4
2023-03-23T10:33:30.000Z,92.7
2023-03-23T10:34:47.287Z,92.4
2023-03-23T10:36:03.000Z,92
2023-03-23T10:37:19.000Z,91.6
2023-03-23T10:38:36.001Z,91.5
2023-03-23T10:39:51.000Z,91.1
2023-03-23T10:41:08.000Z,90.7
2023-03-23T10:42:23.000Z,90
2023-03-23T10:43:38.000Z,90.3
2023-03-23T10:44:55.198Z,89.3
2023-03-23T10:46:11.000Z,89.7
2023-03-23T10:47:27.000Z,89
2023-03-23T10:48:43.000Z,87.4
2023-03-23T10:49:59.000Z,85.6
2023-03-23T10:52:32.000Z,83.9
2023-03-23T10:53:48.000Z,81.8
2023-03-23T10:55:04.000Z,82.6
2023-03-23T10:56:21.000Z,83.3
2023-03-23T10:57:37.000Z,84.1
2023-03-23T10:58:53.000Z,85.4
2023-03-23T11:00:08.000Z,85.8
2023-03-23T11:01:25.000Z,85.5
2023-03-23T11:02:41.500Z,84.4
2023-03-23T11:05:13.945Z,84.8
2023-03-23T11:06:28.000Z,84.3
2023-03-23T11:07:44.000Z,83.9
2023-03-23T11:09:00.000Z,84.9
2023-03-23T11:10:16.000Z,86.5
2023-03-23T11:11:32.000Z,86.6
2023-03-23T11:12:49.000Z,85.7
2023-03-23T11:15:21.000Z,83.8
2023-03-23T11:16:38.090Z,84.9
2023-03-23T11:17:54.000Z,85.1
2023-03-23T11:19:10.000Z,84.8
2023-03-23T11:20:26.000Z,84.6
2023-03-23T11:21:42.000Z,84.5
2023-03-23T11:22:59.000Z,85
2023-03-23T11:24:14.000Z,84.7
2023-03-23T11:25:30.000Z,85.2
2023-03-23T11:26:46.000Z,85.8
2023-03-23T11:28:02.000Z,86.2
2023-03-23T11:29:19.000Z,85.2
2023-03-23T11:30:35.000Z,86.4
2023-03-23T11:31:51.000Z,86.3
2023-03-23T11:33:07.000Z,85.5
2023-03-23T11:34:23.000Z,85
2023-03-23T11:35:38.000Z,85.8
2023-03-23T11:36:54.000Z,85.8
2023-03-23T11:38:10.000Z,85
2023-03-23T11:40:43.000Z,85.8
2023-03-23T11:43:15.000Z,84.9
2023-03-23T11:44:32.000Z,84
2023-03-23T11:45:48.000Z,85.1
2023-03-23T11:47:04.000Z,84.7
2023-03-23T11:48:20.000Z,85.7
2023-03-23T11:49:36.000Z,86
2023-03-23T11:50:52.000Z,85.4
2023-03-23T11:52:07.000Z,86.7
2023-03-23T11:53:23.000Z,87.4
2023-03-23T11:54:40.183Z,87.7
2023-03-23T11:55:56.000Z,87.3
2023-03-23T11:57:12.000Z,87.7
2023-03-23T11:58:28.909Z,87.3
2023-03-23T11:59:44.000Z,85.1
2023-03-23T12:01:01.000Z,83.8
2023-03-23T12:02:17.000Z,85.3
2023-03-23T12:03:33.000Z,84.4
2023-03-23T12:04:48.000Z,83.3
2023-03-23T12:06:04.000Z,83.4
2023-03-23T12:07:20.000Z,83.7
2023-03-23T12:08:36.000Z,84.2
2023-03-23T12:09:52.000Z,83.9
2023-03-23T12:11:09.000Z,83.8
2023-03-23T12:12:25.000Z,83.2
2023-03-23T12:13:41.000Z,82.5
2023-03-23T12:14:57.000Z,82
2023-03-23T12:16:13.000Z,82.8
2023-03-23T12:17:30.000Z,83.4
2023-03-23T12:18:46.000Z,82.2
2023-03-23T12:20:02.000Z,81.7
2023-03-23T12:21:18.000Z,83.3
2023-03-23T12:22:34.000Z,83.8
2023-03-23T12:23:50.000Z,82.7
2023-03-23T12:25:06.000Z,83.1
2023-03-23T12:26:22.000Z,83.2
2023-03-23T12:27:39.000Z,83.3
2023-03-23T12:28:55.000Z,83.4
2023-03-23T12:30:11.000Z,83.3
2023-03-23T12:31:27.000Z,82.6
2023-03-23T12:34:00.000Z,76.5
2023-03-23T12:36:32.000Z,73.7
2023-03-23T12:37:48.000Z,70
2023-03-23T12:39:04.000Z,67.6
2023-03-23T12:40:20.000Z,67.8
2023-03-23T12:41:35.000Z,67.5
2023-03-23T12:42:51.000Z,67.7
2023-03-23T12:44:08.000Z,67
2023-03-23T12:45:24.000Z,66.4
2023-03-23T12:46:40.000Z,65
2023-03-23T12:47:56.000Z,68.2
2023-03-23T12:49:13.000Z,67
2023-03-23T12:50:29.522Z,65.5
2023-03-23T12:51:45.000Z,67.7
2023-03-23T12:53:01.000Z,70.2
2023-03-23T12:54:18.230Z,71.8
2023-03-23T12:55:34.000Z,71.5
2023-03-23T12:56:50.000Z,73.5
2023-03-23T12:58:05.000Z,76.1
2023-03-23T12:59:22.177Z,77
2023-03-23T13:00:38.000Z,77.1
2023-03-23T13:01:54.000Z,77.2
2023-03-23T13:03:10.000Z,77.2
2023-03-23T13:04:26.000Z,78.6
2023-03-23T13:05:43.000Z,78.1
2023-03-23T13:06:59.000Z,78.5
2023-03-23T13:08:15.000Z,78.6
2023-03-23T13:09:31.000Z,78.6
2023-03-23T13:10:48.000Z,78.1
2023-03-23T13:12:04.638Z,76.9
2023-03-23T13:13:20.000Z,74.1
2023-03-23T13:14:35.000Z,72.2
2023-03-23T13:15:51.000Z,73.2
2023-03-23T13:17:08.000Z,74.5
2023-03-23T13:18:24.000Z,75.2
2023-03-23T13:19:40.000Z,72.8
2023-03-23T13:20:57.177Z,70.7
2023-03-23T13:22:13.000Z,68.5
2023-03-23T13:23:29.626Z,69.5
2023-03-23T13:24:45.000Z,67.8
2023-03-23T13:26:02.095Z,67.8
2023-03-23T13:27:18.000Z,69
2023-03-23T13:28:34.000Z,71
2023-03-23T13:29:50.000Z,71.4
2023-03-23T13:31:05.000Z,72.2
2023-03-23T13:32:22.000Z,71.4
2023-03-23T13:33:38.000Z,70.5
2023-03-23T13:34:54.000Z,69.3
2023-03-23T13:36:10.000Z,70
2023-03-23T13:37:26.000Z,71.4
2023-03-23T13:38:43.000Z,70.5
2023-03-23T13:39:59.678Z,71
2023-03-23T13:41:15.000Z,71.4
2023-03-23T13:42:31.000Z,72.4
2023-03-23T13:43:48.000Z,73.4
2023-03-23T13:45:04.000Z,74.2
2023-03-23T13:46:20.000Z,74.5
2023-03-23T13:47:35.000Z,74.8
2023-03-23T13:48:52.000Z,73.2
2023-03-23T13:50:08.000Z,73.9
2023-03-23T13:51:24.802Z,73.5
2023-03-23T13:52:40.000Z,72.1
2023-03-23T13:53:57.000Z,72.4
2023-03-23T13:55:13.000Z,73
2023-03-23T13:56:29.707Z,73.7
2023-03-23T13:57:45.000Z,74.6
2023-03-23T13:59:01.000Z,75.3
2023-03-23T14:00:18.406Z,76.7
2023-03-23T14:02:50.000Z,76.5
2023-03-23T14:04:05.000Z,76.9
2023-03-23T14:05:22.000Z,77.1
2023-03-23T14:06:38.000Z,77.1
2023-03-23T14:07:54.000Z,77.4
2023-03-23T14:09:10.000Z,77.3
2023-03-23T14:10:27.000Z,77.6
2023-03-23T14:11:43.544Z,78.3
2023-03-23T14:12:59.000Z,78
2023-03-23T14:14:16.007Z,77.5
2023-03-23T14:15:31.000Z,78.2
2023-03-23T14:16:48.000Z,78.1
2023-03-23T14:18:04.000Z,77.7
2023-03-23T14:19:20.000Z,77.6
2023-03-23T14:20:35.000Z,77.8
2023-03-23T14:21:52.000Z,77.7
2023-03-23T14:23:08.000Z,77.6
2023-03-23T14:24:24.000Z,77.9
2023-03-23T14:25:40.000Z,77.6
2023-03-23T14:26:57.000Z,77.8
2023-03-23T14:28:13.000Z,77.8
2023-03-23T14:29:29.839Z,76.9
2023-03-23T14:30:45.000Z,77.2
2023-03-23T14:32:02.000Z,76.5
2023-03-23T14:33:18.000Z,76.2
2023-03-23T14:34:34.000Z,76.3
2023-03-23T14:35:50.000Z,76.7
2023-03-23T14:37:05.000Z,77.2
2023-03-23T14:38:22.000Z,77.6
2023-03-23T14:39:38.686Z,77.7
2023-03-23T14:40:54.919Z,78.1
2023-03-23T14:42:10.000Z,78.1
2023-03-23T14:43:27.408Z,77.8
2023-03-23T14:44:43.000Z,77.2
2023-03-23T14:45:59.863Z,77.5
2023-03-23T14:47:15.000Z,78
2023-03-23T14:48:32.319Z,78.3
2023-03-23T14:49:48.000Z,77.9
2023-03-23T14:51:04.805Z,77.6
2023-03-23T14:52:21.045Z,77.7
2023-03-23T14:53:37.000Z,77.5
2023-03-23T14:54:52.507Z,77.2
2023-03-23T14:56:08.000Z,77.2
2023-03-23T14:57:24.000Z,77
2023-03-23T14:58:40.000Z,77.1
2023-03-23T14:59:57.000Z,76.8
2023-03-23T15:01:13.690Z,76.7
2023-03-23T15:02:29.000Z,76.5
2023-03-23T15:03:45.000Z,76.1
2023-03-23T15:05:02.000Z,76.1
2023-03-23T15:06:18.000Z,76.1
2023-03-23T15:07:34.846Z,76.7
2023-03-23T15:08:50.000Z,76.7
2023-03-23T15:10:07.000Z,77
2023-03-23T15:11:22.000Z,76.8
2023-03-23T15:12:38.000Z,76.5
2023-03-23T15:13:54.000Z,76.8
2023-03-23T15:15:11.000Z,76.7
2023-03-23T15:16:27.497Z,76.1
2023-03-23T15:17:43.000Z,76.3
2023-03-23T15:18:59.000Z,76.3
2023-03-23T15:20:15.000Z,76.4
2023-03-23T15:21:32.000Z,76.2
2023-03-23T15:22:48.000Z,76
2023-03-23T15:24:04.000Z,76.6
2023-03-23T15:25:20.000Z,76.3
2023-03-23T15:26:37.000Z,76.2
2023-03-23T15:27:52.610Z,76.5
2023-03-23T15:29:08.000Z,76.1
2023-03-23T15:30:25.059Z,75.6
2023-03-23T15:31:41.000Z,75.7
2023-03-23T15:32:57.000Z,75.8
2023-03-23T15:34:13.777Z,75.9
2023-03-23T15:35:29.000Z,75.6
2023-03-23T15:36:45.000Z,75.6
2023-03-23T15:38:02.000Z,75.3
2023-03-23T15:39:18.000Z,75.4
2023-03-23T15:40:34.000Z,75.4
2023-03-23T15:41:51.177Z,75.1
2023-03-23T15:44:23.000Z,75.6
2023-03-23T15:45:38.000Z,75.9
2023-03-23T15:46:54.000Z,75.8
2023-03-23T15:48:11.000Z,76.3
2023-03-23T15:49:27.000Z,76.7
2023-03-23T15:50:43.000Z,76.7
2023-03-23T15:51:59.000Z,76.6
2023-03-23T15:53:16.000Z,77
2023-03-23T15:54:32.000Z,77.2
2023-03-23T15:55:48.000Z,77.6
2023-03-23T15:57:04.000Z,78
2023-03-23T15:58:20.000Z,78.3
2023-03-23T15:59:37.000Z,78.7
2023-03-23T16:00:53.000Z,79.1
2023-03-23T16:02:08.000Z,79.1
2023-03-23T16:03:25.150Z,79.3
2023-03-23T16:04:41.000Z,79.4
2023-03-23T16:05:57.000Z,79.5
2023-03-23T16:07:13.000Z,79.5
2023-03-23T16:08:30.127Z,79.7
2023-03-23T16:09:46.000Z,79.6
2023-03-23T16:11:02.549Z,79.3
2023-03-23T16:12:18.806Z,79.8
2023-03-23T16:13:34.038Z,80
2023-03-23T16:14:49.000Z,80
2023-03-23T16:16:05.000Z,80.2
2023-03-23T16:17:21.000Z,80.3
2023-03-23T16:18:37.000Z,80.4
2023-03-23T16:19:54.000Z,80.9
2023-03-23T16:21:10.000Z,80.7
2023-03-23T16:22:26.000Z,80.6
2023-03-23T16:23:42.000Z,80.6
2023-03-23T16:24:58.000Z,80.4
2023-03-23T16:26:14.440Z,80.5
2023-03-23T16:27:29.682Z,80.2
2023-03-23T16:28:45.000Z,80.2
2023-03-23T16:30:02.132Z,80.4
2023-03-23T16:31:18.363Z,80.5
2023-03-23T16:33:50.000Z,80.6
2023-03-23T16:35:06.000Z,80
2023-03-23T16:36:23.000Z,80.3
2023-03-23T16:37:39.000Z,80.6
2023-03-23T16:38:55.000Z,80.5
2023-03-23T16:40:11.000Z,80.5
2023-03-23T16:41:28.000Z,80.4
2023-03-23T16:42:44.000Z,80.2
2023-03-23T16:43:59.000Z,80.2
2023-03-23T16:45:15.000Z,80.2
2023-03-23T16:46:31.000Z,79.8
2023-03-23T16:47:48.439Z,79.8
2023-03-23T16:49:04.000Z,80
2023-03-23T16:50:20.000Z,80.2
2023-03-23T16:51:36.000Z,80.3
2023-03-23T16:52:53.000Z,80.6
2023-03-23T16:54:09.000Z,81.2
2023-03-23T16:55:25.000Z,82
2023-03-23T16:56:40.000Z,82.7
2023-03-23T16:57:57.330Z,83.4
2023-03-23T16:59:13.000Z,83.8
2023-03-23T17:00:29.000Z,83.8
2023-03-23T17:01:45.000Z,84.2
2023-03-23T17:03:02.000Z,84.7
2023-03-23T17:04:18.000Z,85.2
2023-03-23T17:05:34.000Z,85.4
2023-03-23T17:06:50.000Z,85.6
2023-03-23T17:08:06.000Z,86.2
2023-03-23T17:09:23.000Z,86.8
2023-03-23T17:10:39.000Z,86.1
2023-03-23T17:13:11.000Z,87
2023-03-23T17:14:27.373Z,87.5
2023-03-23T17:15:43.000Z,87.2
2023-03-23T17:16:59.000Z,87.6
2023-03-23T17:18:15.000Z,87.5
2023-03-23T17:19:32.000Z,87.5
2023-03-23T17:20:48.000Z,88.1
2023-03-23T17:22:04.000Z,87.7
2023-03-23T17:23:20.000Z,88.1
2023-03-23T17:24:36.000Z,88